Time;durP1;ratioP1;P1;durP2;ratioP2;P2;SDS_P1;SDS_P2;PMS_P1;PMS_P2;Temp;Humidity;BMP_temperature;BMP_pressure;BME280_temperature;BME280_humidity;BME280_pressure;Samples;Min_cycle;Max_cycle;Signal;HPM_P1;HPM_P2
2023/02/15 00:01:32;;;;;;;;;;;;;;;20.42;29.82;102176.11;106235;1283;75446;-82
2023/02/15 00:03:57;;;;;;;;;;;;;;;20.42;29.83;102178.62;106046;1283;61228;-82
2023/02/15 00:06:23;;;;;;;;;;;;;;;20.42;29.90;102178.63;106333;1283;61261;-82
2023/02/15 00:08:48;;;;;;;;;;;;;;;20.42;29.75;102184.70;106186;1283;61286;-82
2023/02/15 00:11:16;;;;;;;;;;;;;;;20.42;29.90;102184.35;106253;1283;61201;-83
2023/02/15 00:13:41;;;;;;;;;;;;;;;20.42;29.81;102184.52;106308;1283;74450;-83
2023/02/15 00:16:11;;;;;;;;;;;;;;;20.42;29.86;102182.55;106308;1283;61336;-83
2023/02/15 00:18:37;;;;;;;;;;;;;;;20.42;29.77;102184.70;106312;1283;61295;-83
2023/02/15 00:21:03;;;;;;;;;;;;;;;20.42;29.88;102179.52;106230;1288;60063;-83
2023/02/15 00:23:28;;;;;;;;;;;;;;;20.42;29.78;102182.91;106258;1282;61300;-83
2023/02/15 00:26:04;;;;;;;;;;;;;;;20.42;29.80;102183.98;106316;1283;61307;-83
2023/02/15 00:28:30;;;;;;;;;;;;;;;20.42;29.81;102180.58;106222;1283;61237;-82
2023/02/15 00:31:01;;;;;;;;;;;;;;;20.42;29.89;102183.81;106321;1285;61234;-82
2023/02/15 00:33:27;;;;;;;;;;;;;;;20.42;29.80;102189.71;106300;1283;74610;-82
2023/02/15 00:35:56;;;;;;;;;;;;;;;20.42;29.74;102200.96;106232;1282;61278;-82
2023/02/15 00:38:21;;;;;;;;;;;;;;;20.43;29.78;102199.36;106216;1283;61176;-83
2023/02/15 00:40:51;;;;;;;;;;;;;;;20.42;29.75;102198.11;106209;1281;60018;-83
2023/02/15 00:43:17;;;;;;;;;;;;;;;20.42;29.89;102196.33;106360;1283;75431;-83
2023/02/15 00:45:42;;;;;;;;;;;;;;;20.42;29.91;102190.40;106282;1282;61281;-83
2023/02/15 00:48:08;;;;;;;;;;;;;;;20.43;29.74;102190.57;106338;1282;61230;-83
2023/02/15 00:50:33;;;;;;;;;;;;;;;20.43;29.73;102188.06;106224;1282;61317;-83
2023/02/15 00:53:00;;;;;;;;;;;;;;;20.43;29.90;102184.86;106380;1282;61279;-83
2023/02/15 00:55:25;;;;;;;;;;;;;;;20.43;29.92;102182.88;106216;1283;74353;-82
2023/02/15 00:57:51;;;;;;;;;;;;;;;20.42;29.68;102185.95;106250;1282;59291;-83
2023/02/15 01:00:16;;;;;;;;;;;;;;;20.43;29.80;102191.11;106366;1283;61252;-83
2023/02/15 01:02:42;;;;;;;;;;;;;;;20.42;29.74;102189.51;106230;1286;61384;-82
2023/02/15 01:05:07;;;;;;;;;;;;;;;20.42;29.72;102190.23;106255;1283;61358;-82
2023/02/15 01:07:33;;;;;;;;;;;;;;;20.43;29.82;102187.91;106201;1288;74558;-83
2023/02/15 01:09:58;;;;;;;;;;;;;;;20.42;29.71;102191.85;106313;1283;61233;-82
2023/02/15 01:12:24;;;;;;;;;;;;;;;20.42;29.77;102190.59;106166;1282;61330;-82
2023/02/15 01:14:50;;;;;;;;;;;;;;;20.42;29.82;102185.75;106327;1283;61435;-82
2023/02/15 01:17:15;;;;;;;;;;;;;;;20.43;29.71;102189.69;106209;1282;61528;-82
2023/02/15 01:19:41;;;;;;;;;;;;;;;20.43;29.77;102192.54;106230;1283;61239;-82
2023/02/15 01:22:06;;;;;;;;;;;;;;;20.43;29.59;102189.85;106177;1282;61361;-82
2023/02/15 01:24:32;;;;;;;;;;;;;;;20.43;29.76;102192.38;106188;1283;61781;-82
2023/02/15 01:26:58;;;;;;;;;;;;;;;20.43;29.83;102192.36;106199;1288;61249;-82
2023/02/15 01:29:24;;;;;;;;;;;;;;;20.43;29.72;102190.22;106202;1282;61332;-82
2023/02/15 01:31:50;;;;;;;;;;;;;;;20.43;29.71;102191.66;106208;1282;61345;-82
2023/02/15 01:34:15;;;;;;;;;;;;;;;20.43;29.80;102190.40;106245;1283;61276;-82
2023/02/15 01:36:41;;;;;;;;;;;;;;;20.43;29.74;102189.86;106214;1283;61125;-82
2023/02/15 01:39:09;;;;;;;;;;;;;;;20.43;29.69;102186.83;106195;1283;61337;-83
2023/02/15 01:41:34;;;;;;;;;;;;;;;20.42;29.78;102191.11;106310;1283;74922;-82
2023/02/15 01:44:00;;;;;;;;;;;;;;;20.42;29.66;102195.41;106232;1282;60187;-82
2023/02/15 01:46:27;;;;;;;;;;;;;;;20.43;29.59;102196.31;106177;1283;61131;-82
2023/02/15 01:48:55;;;;;;;;;;;;;;;20.42;29.62;102193.27;106233;1282;61330;-82
2023/02/15 01:51:22;;;;;;;;;;;;;;;20.43;29.66;102199.15;106318;1282;74258;-82
2023/02/15 01:53:48;;;;;;;;;;;;;;;20.42;29.77;102194.88;106225;1287;61202;-82
2023/02/15 01:56:15;;;;;;;;;;;;;;;20.43;29.74;102197.02;106219;1282;61390;-82
2023/02/15 01:58:41;;;;;;;;;;;;;;;20.43;29.74;102197.73;106187;1283;72529;-83
2023/02/15 02:01:07;;;;;;;;;;;;;;;20.43;29.64;102193.64;106295;1283;61268;-82
2023/02/15 02:03:33;;;;;;;;;;;;;;;20.43;29.87;102196.30;106155;1282;61247;-82
2023/02/15 02:05:58;;;;;;;;;;;;;;;20.43;29.49;102200.06;106209;1283;61720;-82
2023/02/15 02:08:23;;;;;;;;;;;;;;;20.42;29.62;102197.59;106314;1285;61266;-82
2023/02/15 02:10:49;;;;;;;;;;;;;;;20.42;29.66;102197.59;106285;1282;61311;-83
2023/02/15 02:13:15;;;;;;;;;;;;;;;20.42;29.66;102195.64;106193;1283;61294;-82
2023/02/15 02:15:47;;;;;;;;;;;;;;;20.42;29.70;102198.67;106227;1283;60463;-82
2023/02/15 02:18:32;;;;;;;;;;;;;;;20.42;29.61;102201.17;106323;1282;61386;-83
2023/02/15 02:21:05;;;;;;;;;;;;;;;20.42;29.70;102200.08;106204;1282;72374;-82
2023/02/15 02:23:43;;;;;;;;;;;;;;;20.42;29.60;102201.34;106212;1283;74540;-82
2023/02/15 02:26:27;;;;;;;;;;;;;;;20.42;29.57;102204.54;106195;1282;61200;-83
2023/02/15 02:29:11;;;;;;;;;;;;;;;20.42;29.68;102205.98;106316;1282;61279;-82
2023/02/15 02:32:00;;;;;;;;;;;;;;;20.42;29.68;102208.48;106283;1282;73504;-82
2023/02/15 02:34:55;;;;;;;;;;;;;;;20.42;29.50;102210.30;106211;1282;74429;-82
2023/02/15 02:37:23;;;;;;;;;;;;;;;20.42;29.63;102213.50;105327;1288;61166;-82
2023/02/15 02:40:07;;;;;;;;;;;;;;;20.42;29.68;102217.06;105516;1289;61087;-82
2023/02/15 02:42:35;;;;;;;;;;;;;;;20.42;29.77;102221.54;105526;1288;73453;-82
2023/02/15 02:45:15;;;;;;;;;;;;;;;20.42;29.68;102224.38;105445;1289;75431;-82
2023/02/15 02:47:41;;;;;;;;;;;;;;;20.43;29.50;102227.22;105516;1289;61673;-82
2023/02/15 02:50:08;;;;;;;;;;;;;;;20.43;29.67;102227.61;105523;1289;61397;-83
2023/02/15 02:52:34;;;;;;;;;;;;;;;20.42;29.66;102226.02;105411;1289;61297;-83
2023/02/15 02:55:00;;;;;;;;;;;;;;;20.42;29.64;102227.80;105516;1289;61362;-83
2023/02/15 02:57:25;;;;;;;;;;;;;;;20.42;29.60;102226.37;105452;1288;61337;-83
2023/02/15 02:59:51;;;;;;;;;;;;;;;20.42;29.52;102229.77;105452;1289;61285;-83
2023/02/15 03:02:17;;;;;;;;;;;;;;;20.42;29.63;102230.30;105491;1289;61325;-83
2023/02/15 03:04:47;;;;;;;;;;;;;;;20.42;29.55;102236.75;105473;1288;72394;-82
2023/02/15 03:07:14;;;;;;;;;;;;;;;20.42;29.55;102230.33;105468;1289;75388;-82
2023/02/15 03:09:44;;;;;;;;;;;;;;;20.42;29.72;102229.24;105597;1289;61366;-82
2023/02/15 03:12:11;;;;;;;;;;;;;;;20.42;29.71;102229.78;105617;1289;61436;-82
2023/02/15 03:14:36;;;;;;;;;;;;;;;20.42;29.56;102231.02;106082;1283;72451;-82
2023/02/15 03:17:03;;;;;;;;;;;;;;;20.42;29.63;102231.38;106233;1283;61230;-82
2023/02/15 03:19:29;;;;;;;;;;;;;;;20.42;29.70;102234.79;106311;1282;60128;-82
2023/02/15 03:22:03;;;;;;;;;;;;;;;20.42;29.60;102238.70;106223;1282;61294;-82
2023/02/15 03:24:32;;;;;;;;;;;;;;;20.42;29.48;102235.83;106179;1282;73563;-82
2023/02/15 03:26:58;;;;;;;;;;;;;;;20.42;29.61;102233.87;106207;1283;74408;-83
2023/02/15 03:29:24;;;;;;;;;;;;;;;20.42;29.61;102231.36;106196;1282;61262;-83
2023/02/15 03:31:51;;;;;;;;;;;;;;;20.41;29.52;102228.37;106220;1282;61323;-83
2023/02/15 03:34:16;;;;;;;;;;;;;;;20.42;29.35;102227.45;106228;1282;61263;-83
2023/02/15 03:36:59;;;;;;;;;;;;;;;20.41;29.49;102231.23;106231;1285;61288;-83
2023/02/15 03:39:36;;;;;;;;;;;;;;;20.41;29.54;102231.23;106321;1282;61129;-81
2023/02/15 03:42:15;;;;;;;;;;;;;;;20.42;29.63;102229.41;106319;1282;61072;-82
2023/02/15 03:44:49;;;;;;;;;;;;;;;20.42;29.62;102231.75;106296;1283;74199;-82
2023/02/15 03:47:20;;;;;;;;;;;;;;;20.42;29.61;102233.52;106326;1282;75339;-82
2023/02/15 03:49:48;;;;;;;;;;;;;;;20.42;29.49;102228.87;106302;1282;61196;-82
2023/02/15 03:52:14;;;;;;;;;;;;;;;20.41;29.57;102232.13;106195;1283;61128;-82
2023/02/15 03:54:42;;;;;;;;;;;;;;;20.41;29.52;102234.27;106216;1283;61439;-83
2023/02/15 04:02:40;;;;;;;;;;;;;;;20.41;29.44;102245.73;106077;1282;61116;-83
2023/02/15 04:05:05;;;;;;;;;;;;;;;20.41;29.46;102248.79;106328;1283;72354;-82
2023/02/15 04:07:31;;;;;;;;;;;;;;;20.41;29.48;102252.19;106217;1283;61431;-82
2023/02/15 04:12:41;;;;;;;;;;;;;;;20.41;29.53;102248.26;106244;1283;61239;-82
2023/02/15 04:17:50;;;;;;;;;;;;;;;20.41;29.47;102244.48;106201;1282;74355;-83
2023/02/15 04:25:44;;;;;;;;;;;;;;;20.41;29.50;102255.21;106301;1282;71907;-83
2023/02/15 04:28:10;;;;;;;;;;;;;;;20.41;29.44;102259.69;106217;1282;61247;-82
2023/02/15 04:30:36;;;;;;;;;;;;;;;20.41;29.29;102260.04;106188;1282;61181;-83
2023/02/15 04:33:01;;;;;;;;;;;;;;;20.41;29.33;102263.98;106315;1282;61351;-82
2023/02/15 04:35:27;;;;;;;;;;;;;;;20.41;29.38;102266.30;106186;1283;59943;-82
2023/02/15 04:37:52;;;;;;;;;;;;;;;20.40;29.42;102265.63;106223;1282;61291;-82
2023/02/15 04:40:18;;;;;;;;;;;;;;;20.41;29.24;102261.13;106199;1282;61273;-82
2023/02/15 04:42:43;;;;;;;;;;;;;;;20.41;29.29;102262.20;106194;1283;61258;-82
2023/02/15 04:45:09;;;;;;;;;;;;;;;20.40;29.46;102259.89;106287;1283;61272;-83
2023/02/15 04:47:34;;;;;;;;;;;;;;;20.40;29.31;102265.81;106200;1283;61225;-81
2023/02/15 04:50:23;;;;;;;;;;;;;;;20.40;29.41;102272.40;106251;1283;61230;-82
2023/02/15 04:52:49;;;;;;;;;;;;;;;20.40;29.44;102276.16;105547;1288;74727;-82
2023/02/15 04:55:14;;;;;;;;;;;;;;;20.41;29.31;102279.55;105557;1288;61308;-82
2023/02/15 04:57:40;;;;;;;;;;;;;;;20.41;29.23;102278.11;105466;1289;61282;-82
2023/02/15 05:00:06;;;;;;;;;;;;;;;20.41;29.51;102286.15;105488;1288;61551;-83
2023/02/15 05:02:31;;;;;;;;;;;;;;;20.41;29.43;102289.73;105506;1289;61257;-83
2023/02/15 05:04:57;;;;;;;;;;;;;;;20.40;29.34;102292.97;105466;1288;61710;-83
2023/02/15 05:07:22;;;;;;;;;;;;;;;20.40;29.30;102297.98;105476;1288;61293;-83
2023/02/15 05:09:48;;;;;;;;;;;;;;;20.40;29.21;102301.56;105463;1288;61270;-84
2023/02/15 05:12:13;;;;;;;;;;;;;;;20.40;29.30;102304.08;105492;1289;61291;-84
2023/02/15 05:14:39;;;;;;;;;;;;;;;20.40;29.29;102306.58;105474;1288;61378;-84
2023/02/15 05:17:05;;;;;;;;;;;;;;;20.39;29.33;102311.78;105454;1289;61382;-85
2023/02/15 05:19:30;;;;;;;;;;;;;;;20.38;29.43;102314.71;105413;1288;61195;-84
2023/02/15 05:21:56;;;;;;;;;;;;;;;20.35;29.46;102314.30;105463;1288;61726;-84
2023/02/15 05:29:51;;;;;;;;;;;;;;;20.25;29.28;102326.54;105743;1282;61362;-83
2023/02/15 05:32:17;;;;;;;;;;;;;;;20.21;29.19;102326.55;106122;1282;61354;-83
2023/02/15 05:34:43;;;;;;;;;;;;;;;20.16;29.13;102327.98;106307;1282;60449;-82
2023/02/15 05:37:08;;;;;;;;;;;;;;;20.13;29.23;102331.19;106352;1282;61342;-83
2023/02/15 05:39:34;;;;;;;;;;;;;;;20.08;29.10;102338.35;106190;1282;61295;-83
2023/02/15 05:42:00;;;;;;;;;;;;;;;20.02;29.28;102341.64;106356;1282;61224;-83
2023/02/15 05:44:25;;;;;;;;;;;;;;;19.98;29.19;102340.94;106292;1281;61720;-82
2023/02/15 05:46:52;;;;;;;;;;;;;;;19.93;29.08;102339.53;106258;1282;60121;-83
2023/02/15 05:49:17;;;;;;;;;;;;;;;19.88;29.03;102342.25;106406;1282;61206;-82
2023/02/15 05:51:43;;;;;;;;;;;;;;;19.83;29.07;102341.20;106282;1282;61346;-82
2023/02/15 05:54:11;;;;;;;;;;;;;;;19.78;29.17;102344.80;106068;1282;61297;-83
2023/02/15 05:56:37;;;;;;;;;;;;;;;19.72;29.20;102344.11;106371;1282;61158;-83
2023/02/15 05:59:02;;;;;;;;;;;;;;;19.68;29.14;102353.94;106340;1283;59995;-84
2023/02/15 06:01:28;;;;;;;;;;;;;;;19.63;29.40;102358.95;106195;1282;61090;-83
2023/02/15 06:03:54;;;;;;;;;;;;;;;19.58;29.16;102352.54;106357;1282;59984;-84
2023/02/15 06:06:19;;;;;;;;;;;;;;;19.54;29.18;102359.14;106355;1281;62155;-83
2023/02/15 06:08:45;;;;;;;;;;;;;;;19.51;29.29;102358.73;106415;1282;59426;-83
2023/02/15 06:11:10;;;;;;;;;;;;;;;19.49;29.24;102360.80;106298;1282;61252;-83
2023/02/15 06:13:36;;;;;;;;;;;;;;;19.46;29.30;102364.25;106416;1282;59988;-82
2023/02/15 06:16:01;;;;;;;;;;;;;;;19.43;29.48;102367.76;106250;1282;60307;-83
2023/02/15 06:18:27;;;;;;;;;;;;;;;19.41;29.44;102368.91;106298;1282;61167;-84
2023/02/15 06:20:52;;;;;;;;;;;;;;;19.39;29.43;102371.30;106418;1281;61799;-84
2023/02/15 06:23:18;;;;;;;;;;;;;;;19.37;29.45;102368.35;106449;1282;61258;-84
2023/02/15 06:25:46;;;;;;;;;;;;;;;19.36;29.40;102366.64;106389;1282;61289;-84
2023/02/15 06:28:12;;;;;;;;;;;;;;;19.34;29.32;102365.27;106314;1282;61128;-84
2023/02/15 06:30:38;;;;;;;;;;;;;;;19.33;29.52;102362.46;106400;1281;60108;-84
2023/02/15 06:33:04;;;;;;;;;;;;;;;19.32;29.50;102353.77;106398;1282;61192;-83
2023/02/15 06:35:30;;;;;;;;;;;;;;;19.31;29.45;102353.80;106343;1282;61724;-84
2023/02/15 06:37:57;;;;;;;;;;;;;;;19.30;29.42;102354.90;106408;1282;59278;-84
2023/02/15 06:40:22;;;;;;;;;;;;;;;19.30;29.55;102358.84;106311;1282;61289;-83
2023/02/15 06:42:49;;;;;;;;;;;;;;;19.29;29.51;102359.92;106350;1282;61246;-84
2023/02/15 06:45:15;;;;;;;;;;;;;;;19.29;29.63;102356.73;106360;1283;74424;-84
2023/02/15 06:47:41;;;;;;;;;;;;;;;19.28;29.43;102357.50;106453;1282;60127;-85
2023/02/15 06:50:06;;;;;;;;;;;;;;;19.27;29.44;102352.70;106305;1282;60302;-83
2023/02/15 06:52:32;;;;;;;;;;;;;;;19.27;29.45;102350.55;106419;1282;59319;-85
2023/02/15 06:54:57;;;;;;;;;;;;;;;19.27;29.38;102350.36;106325;1282;60796;-83
2023/02/15 06:57:23;;;;;;;;;;;;;;;19.28;29.56;102354.83;106341;1281;59483;-83
2023/02/15 06:59:49;;;;;;;;;;;;;;;19.28;29.53;102355.88;106392;1282;61739;-83
2023/02/15 07:02:14;;;;;;;;;;;;;;;19.32;29.58;102353.94;105857;1281;819259;-82
2023/02/15 07:04:40;;;;;;;;;;;;;;;19.36;29.56;102353.59;106418;1282;59658;-82
2023/02/15 07:07:09;;;;;;;;;;;;;;;19.40;29.44;102359.88;106502;1282;61397;-83
2023/02/15 07:09:36;;;;;;;;;;;;;;;19.45;29.48;102363.21;106351;1282;59966;-83
2023/02/15 07:14:45;;;;;;;;;;;;;;;19.49;29.42;102360.02;106399;1283;72541;-83
2023/02/15 07:17:11;;;;;;;;;;;;;;;19.51;29.42;102361.42;106340;1283;59307;-82
2023/02/15 07:19:36;;;;;;;;;;;;;;;19.50;29.45;102362.15;106564;1282;60104;-83
2023/02/15 07:22:03;;;;;;;;;;;;;;;19.47;29.54;102361.02;106575;1282;59421;-83
2023/02/15 07:24:29;;;;;;;;;;;;;;;19.46;29.39;102363.41;106427;1282;59970;-83
2023/02/15 07:26:57;;;;;;;;;;;;;;;19.43;29.38;102355.80;106565;1282;61135;-83
2023/02/15 07:29:22;;;;;;;;;;;;;;;19.41;29.47;102352.48;106412;1282;75431;-83
2023/02/15 07:31:50;;;;;;;;;;;;;;;19.39;29.50;102349.51;106395;1282;59570;-82
2023/02/15 07:34:17;;;;;;;;;;;;;;;19.38;29.43;102348.52;106532;1282;61119;-83
2023/02/15 07:36:44;;;;;;;;;;;;;;;19.36;29.55;102343.59;106455;1282;73261;-83
2023/02/15 07:39:10;;;;;;;;;;;;;;;19.35;29.48;102342.58;106578;1282;74233;-82
2023/02/15 07:41:36;;;;;;;;;;;;;;;19.34;29.49;102344.93;106615;1282;59973;-84
2023/02/15 07:44:01;;;;;;;;;;;;;;;19.33;29.57;102346.20;106667;1282;60124;-83
2023/02/15 07:46:27;;;;;;;;;;;;;;;19.35;29.50;102344.36;106479;1282;59393;-82
2023/02/15 07:48:53;;;;;;;;;;;;;;;19.38;29.52;102345.66;106621;1282;59408;-83
2023/02/15 07:51:19;;;;;;;;;;;;;;;19.40;29.44;102342.34;106617;1282;61237;-83
2023/02/15 07:53:45;;;;;;;;;;;;;;;19.42;29.40;102342.79;106430;1282;60282;-83
2023/02/15 07:56:11;;;;;;;;;;;;;;;19.43;29.51;102341.67;106437;1283;59318;-83
2023/02/15 07:58:52;;;;;;;;;;;;;;;19.45;29.75;102341.30;106429;1282;59885;-83
2023/02/15 08:01:21;;;;;;;;;;;;;;;19.46;29.75;102341.59;106326;1283;74868;-83
2023/02/15 08:03:46;;;;;;;;;;;;;;;19.47;29.78;102337.64;106486;1282;61552;-83
2023/02/15 08:06:13;;;;;;;;;;;;;;;19.44;29.88;102339.16;106450;1282;60186;-83
2023/02/15 08:08:39;;;;;;;;;;;;;;;19.45;30.09;102338.25;106398;1282;61356;-82
2023/02/15 08:11:32;;;;;;;;;;;;;;;19.48;29.99;102337.40;106317;1282;61117;-83
2023/02/15 08:14:07;;;;;;;;;;;;;;;19.50;29.94;102333.58;105666;1288;60352;-83
2023/02/15 08:16:46;;;;;;;;;;;;;;;19.49;29.92;102335.39;105713;1289;62660;-83
2023/02/15 08:19:12;;;;;;;;;;;;;;;19.51;30.04;102334.09;105515;1288;72859;-83
2023/02/15 08:21:38;;;;;;;;;;;;;;;19.51;30.11;102335.86;105775;1288;75372;-83
2023/02/15 08:24:04;;;;;;;;;;;;;;;19.51;30.06;102339.42;105627;1288;61157;-83
2023/02/15 08:26:31;;;;;;;;;;;;;;;19.52;30.08;102336.88;105758;1288;61254;-83
2023/02/15 08:28:57;;;;;;;;;;;;;;;19.54;30.00;102341.46;105786;1288;59705;-83
2023/02/15 08:31:23;;;;;;;;;;;;;;;19.56;29.85;102340.82;105580;1288;59367;-83
2023/02/15 08:33:50;;;;;;;;;;;;;;;19.58;30.04;102334.67;105642;1289;61235;-83
2023/02/15 08:36:18;;;;;;;;;;;;;;;19.58;29.94;102332.35;105627;1288;59994;-83
2023/02/15 08:38:43;;;;;;;;;;;;;;;19.59;29.96;102329.45;105626;1288;73627;-83
2023/02/15 08:41:16;;;;;;;;;;;;;;;19.60;29.90;102328.71;105562;1289;61286;-83
2023/02/15 08:43:42;;;;;;;;;;;;;;;19.60;29.85;102326.02;105719;1288;60098;-83
2023/02/15 08:46:10;;;;;;;;;;;;;;;19.61;29.80;102328.48;105726;1289;61254;-83
2023/02/15 08:48:36;;;;;;;;;;;;;;;19.62;29.83;102331.48;105742;1288;73363;-84
2023/02/15 08:51:10;;;;;;;;;;;;;;;19.63;29.74;102328.78;105918;1281;62443;-84
2023/02/15 08:53:36;;;;;;;;;;;;;;;19.64;29.64;102329.45;106319;1281;59917;-85
2023/02/15 08:56:02;;;;;;;;;;;;;;;19.65;29.64;102331.03;106390;1282;62273;-84
2023/02/15 08:58:28;;;;;;;;;;;;;;;19.65;29.66;102335.48;106557;1282;61393;-84
2023/02/15 09:00:53;;;;;;;;;;;;;;;19.65;29.69;102334.05;106969;1281;59457;-83
2023/02/15 09:03:19;;;;;;;;;;;;;;;19.65;29.59;102330.48;106814;1281;59465;-82
2023/02/15 09:05:44;;;;;;;;;;;;;;;19.65;29.55;102331.38;106850;1282;59399;-82
2023/02/15 09:08:10;;;;;;;;;;;;;;;19.64;29.84;102331.61;107038;1282;59492;-82
2023/02/15 09:10:35;;;;;;;;;;;;;;;19.63;30.09;102332.70;106755;1282;59640;-83
2023/02/15 09:13:01;;;;;;;;;;;;;;;19.61;30.18;102333.67;106712;1283;59582;-82
2023/02/15 09:15:27;;;;;;;;;;;;;;;19.61;30.34;102333.69;106899;1281;59515;-82
2023/02/15 09:17:52;;;;;;;;;;;;;;;19.62;30.33;102328.98;106892;1282;59027;-83
2023/02/15 09:20:18;;;;;;;;;;;;;;;19.65;30.32;102333.51;106793;1282;59414;-83
2023/02/15 09:22:43;;;;;;;;;;;;;;;19.69;30.55;102333.16;106876;1281;73462;-83
2023/02/15 09:25:09;;;;;;;;;;;;;;;19.73;30.52;102331.58;106924;1281;59315;-82
2023/02/15 09:27:36;;;;;;;;;;;;;;;19.77;30.54;102330.87;106856;1282;59992;-83
2023/02/15 09:30:02;;;;;;;;;;;;;;;19.82;30.62;102328.73;106811;1282;59089;-83
2023/02/15 09:32:27;;;;;;;;;;;;;;;19.86;30.61;102329.09;106557;1282;61061;-83
2023/02/15 09:34:53;;;;;;;;;;;;;;;19.90;30.74;102331.59;106531;1282;61346;-83
2023/02/15 09:37:19;;;;;;;;;;;;;;;19.94;30.60;102326.29;106565;1282;59919;-83
2023/02/15 09:39:44;;;;;;;;;;;;;;;19.96;30.43;102321.73;106426;1282;61158;-83
2023/02/15 09:42:33;;;;;;;;;;;;;;;19.98;30.65;102321.61;106582;1282;59409;-83
2023/02/15 09:44:58;;;;;;;;;;;;;;;20.01;30.56;102315.27;105900;1288;72679;-83
2023/02/15 09:47:43;;;;;;;;;;;;;;;20.03;30.73;102317.30;105829;1289;60549;-83
2023/02/15 09:50:12;;;;;;;;;;;;;;;20.06;30.63;102313.08;105939;1286;61215;-83
2023/02/15 09:52:50;;;;;;;;;;;;;;;20.08;30.66;102307.64;105820;1293;61206;-84
2023/02/15 09:55:24;;;;;;;;;;;;;;;20.09;30.62;102306.47;105870;1289;72509;-83
2023/02/15 09:58:25;;;;;;;;;;;;;;;20.12;30.80;102307.83;105858;1286;74472;-83
2023/02/15 10:00:51;;;;;;;;;;;;;;;20.10;30.72;102301.61;105196;1294;61088;-84
2023/02/15 10:03:36;;;;;;;;;;;;;;;20.09;30.97;102303.45;105340;1294;61337;-83
2023/02/15 10:06:20;;;;;;;;;;;;;;;20.08;31.07;102301.52;105164;1294;73600;-83
2023/02/15 10:09:05;;;;;;;;;;;;;;;20.04;31.08;102301.17;105291;1294;75218;-83
2023/02/15 10:11:49;;;;;;;;;;;;;;;20.00;31.18;102301.73;105289;1294;61241;-84
2023/02/15 10:14:18;;;;;;;;;;;;;;;19.98;31.12;102303.21;105582;1294;60984;-83
2023/02/15 10:16:53;;;;;;;;;;;;;;;19.97;31.04;102299.86;105616;1294;72520;-84
2023/02/15 10:19:25;;;;;;;;;;;;;;;19.97;31.02;102301.13;105814;1294;74602;-83
2023/02/15 10:21:53;;;;;;;;;;;;;;;19.99;31.17;102299.08;105935;1290;61140;-84
2023/02/15 10:24:25;;;;;;;;;;;;;;;20.02;31.10;102292.34;106081;1290;61071;-84
2023/02/15 10:26:50;;;;;;;;;;;;;;;20.03;31.10;102293.21;105570;1290;73564;-84
2023/02/15 10:29:17;;;;;;;;;;;;;;;20.01;30.87;102289.89;105533;1291;59686;-83
2023/02/15 10:31:46;;;;;;;;;;;;;;;19.95;30.97;102288.31;105752;1290;59770;-83
2023/02/15 10:34:13;;;;;;;;;;;;;;;19.91;30.78;102285.80;105737;1290;61011;-85
2023/02/15 10:36:41;;;;;;;;;;;;;;;19.90;30.82;102281.73;106501;1282;71813;-84
2023/02/15 10:39:20;;;;;;;;;;;;;;;19.90;30.73;102279.44;106514;1282;73689;-84
2023/02/15 10:41:53;;;;;;;;;;;;;;;19.91;30.66;102279.73;106580;1282;61262;-84
2023/02/15 10:44:37;;;;;;;;;;;;;;;19.92;30.50;102275.95;106439;1282;61099;-84
2023/02/15 10:47:07;;;;;;;;;;;;;;;19.91;30.63;102271.89;106369;1284;73511;-84
2023/02/15 10:49:32;;;;;;;;;;;;;;;19.91;30.57;102269.38;107000;1281;75873;-84
2023/02/15 10:52:07;;;;;;;;;;;;;;;19.90;30.59;102269.58;106508;1282;61193;-84
2023/02/15 10:54:46;;;;;;;;;;;;;;;19.88;30.39;102261.84;106066;1281;61110;-84
2023/02/15 10:57:22;;;;;;;;;;;;;;;19.82;30.34;102259.96;106412;1283;72583;-83
2023/02/15 11:00:17;;;;;;;;;;;;;;;19.80;30.23;102256.81;106528;1282;74463;-83
2023/02/15 11:02:45;;;;;;;;;;;;;;;19.79;30.29;102252.39;106188;1282;61253;-83
2023/02/15 11:05:17;;;;;;;;;;;;;;;19.77;30.11;102248.85;106447;1282;61175;-83
2023/02/15 11:07:43;;;;;;;;;;;;;;;19.76;30.12;102253.38;106475;1283;72698;-84
2023/02/15 11:10:19;;;;;;;;;;;;;;;19.75;30.11;102251.98;106370;1282;74428;-84
2023/02/15 11:12:44;;;;;;;;;;;;;;;19.72;30.19;102246.05;106566;1282;59868;-82
2023/02/15 11:15:10;;;;;;;;;;;;;;;19.66;30.14;102246.29;106426;1282;60196;-83
2023/02/15 11:17:37;;;;;;;;;;;;;;;19.63;30.11;102243.59;106549;1282;61173;-81
2023/02/15 11:20:06;;;;;;;;;;;;;;;19.59;30.10;102237.33;106419;1282;61007;-83
2023/02/15 11:22:31;;;;;;;;;;;;;;;19.59;30.07;102239.28;106512;1281;59848;-83
2023/02/15 11:24:57;;;;;;;;;;;;;;;19.63;30.07;102241.08;106516;1282;59359;-82
2023/02/15 11:27:25;;;;;;;;;;;;;;;19.65;29.87;102238.33;106363;1283;60618;-82
2023/02/15 11:29:53;;;;;;;;;;;;;;;19.67;29.84;102233.77;106182;1282;61240;-83
2023/02/15 11:32:22;;;;;;;;;;;;;;;19.67;29.73;102234.82;106116;1283;61231;-83
2023/02/15 11:34:50;;;;;;;;;;;;;;;19.66;29.61;102234.32;106333;1282;61063;-83
2023/02/15 11:37:17;;;;;;;;;;;;;;;19.65;29.75;102234.37;106350;1281;72511;-83
2023/02/15 11:39:43;;;;;;;;;;;;;;;19.65;29.55;102229.92;106354;1282;75501;-83
2023/02/15 11:42:16;;;;;;;;;;;;;;;19.65;29.59;102225.64;106521;1282;61784;-82
2023/02/15 11:45:04;;;;;;;;;;;;;;;19.67;29.57;102224.13;106408;1282;61459;-82
2023/02/15 11:47:30;;;;;;;;;;;;;;;19.68;29.48;102219.95;106334;1282;73465;-82
2023/02/15 11:49:56;;;;;;;;;;;;;;;19.68;29.37;102214.24;106423;1282;61395;-82
2023/02/15 11:52:21;;;;;;;;;;;;;;;19.68;29.42;102212.14;106592;1282;59258;-83
2023/02/15 11:54:49;;;;;;;;;;;;;;;19.66;29.24;102214.89;106413;1282;60736;-82
2023/02/15 11:57:21;;;;;;;;;;;;;;;19.64;29.08;102206.75;106345;1282;60160;-82
2023/02/15 11:59:49;;;;;;;;;;;;;;;19.60;29.17;102200.82;106466;1282;74510;-82
2023/02/15 12:02:21;;;;;;;;;;;;;;;19.58;29.23;102202.86;106388;1282;61011;-82
2023/02/15 12:04:51;;;;;;;;;;;;;;;19.59;29.25;102195.16;106458;1282;59993;-82
2023/02/15 12:07:22;;;;;;;;;;;;;;;19.57;29.32;102198.65;106602;1282;72714;-83
2023/02/15 12:10:11;;;;;;;;;;;;;;;19.54;29.33;102194.31;106649;1282;74303;-83
2023/02/15 12:12:37;;;;;;;;;;;;;;;19.56;29.34;102195.83;106972;1282;60899;-84
2023/02/15 12:15:14;;;;;;;;;;;;;;;19.56;29.21;102196.16;106605;1282;60061;-83
2023/02/15 12:17:40;;;;;;;;;;;;;;;19.54;29.08;102194.14;106966;1282;72588;-83
2023/02/15 12:20:15;;;;;;;;;;;;;;;19.50;29.11;102199.67;106391;1282;59244;-82
2023/02/15 12:22:50;;;;;;;;;;;;;;;19.50;29.13;102193.58;106329;1282;59915;-82
2023/02/15 12:25:21;;;;;;;;;;;;;;;19.50;29.14;102193.02;106271;1282;61120;-83
2023/02/15 12:27:46;;;;;;;;;;;;;;;19.50;29.34;102183.77;106362;1282;72338;-82
2023/02/15 12:30:20;;;;;;;;;;;;;;;19.50;29.37;102182.70;106238;1282;61238;-83
2023/02/15 12:32:52;;;;;;;;;;;;;;;19.51;29.25;102177.29;106359;1282;61129;-84
2023/02/15 12:35:33;;;;;;;;;;;;;;;19.53;29.11;102176.30;106348;1282;61101;-83
2023/02/15 12:38:03;;;;;;;;;;;;;;;19.57;29.12;102182.93;106152;1287;71400;-83
2023/02/15 12:40:29;;;;;;;;;;;;;;;19.60;29.05;102183.50;106249;1282;74571;-83
2023/02/15 12:42:55;;;;;;;;;;;;;;;19.63;28.92;102184.66;106492;1282;60387;-82
2023/02/15 12:45:21;;;;;;;;;;;;;;;19.64;28.79;102182.09;106318;1282;61080;-83
2023/02/15 12:47:47;;;;;;;;;;;;;;;19.66;28.93;102182.92;106211;1282;62574;-82
2023/02/15 12:50:17;;;;;;;;;;;;;;;19.67;28.76;102180.38;106458;1282;61213;-83
2023/02/15 12:52:47;;;;;;;;;;;;;;;19.69;28.72;102176.33;106407;1283;61268;-84
2023/02/15 12:55:18;;;;;;;;;;;;;;;19.71;28.72;102172.34;106840;1283;60598;-84
2023/02/15 12:57:46;;;;;;;;;;;;;;;19.72;28.73;102169.41;106903;1283;71315;-83